createdAt,value
2022-10-16T00:00:58.773Z,3.38
2022-10-16T00:03:29.510Z,3.00
2022-10-16T00:06:01.227Z,3.05
2022-10-16T00:08:28.645Z,3.83
2022-10-16T00:11:00.777Z,3.30
2022-10-16T00:13:27.428Z,2.58
2022-10-16T00:15:57.187Z,4.53
2022-10-16T00:18:25.063Z,3.22
2022-10-16T00:20:52.094Z,3.90
2022-10-16T00:23:19.033Z,1.88
2022-10-16T00:25:45.944Z,4.63
2022-10-16T00:28:12.844Z,2.67
2022-10-16T00:30:40.676Z,2.60
2022-10-16T00:33:07.328Z,2.00
2022-10-16T00:35:33.985Z,4.38
2022-10-16T00:38:00.616Z,2.97
2022-10-16T00:40:29.229Z,4.38
2022-10-16T00:42:55.954Z,2.45
2022-10-16T00:45:22.593Z,3.15
2022-10-16T00:47:52.458Z,3.05
2022-10-16T00:50:30.964Z,4.03
2022-10-16T00:52:59.552Z,5.07
2022-10-16T00:55:27.177Z,3.85
2022-10-16T00:57:53.934Z,5.07
2022-10-16T01:00:24.486Z,3.90
2022-10-16T01:02:55.971Z,4.63
2022-10-16T01:05:25.597Z,3.15
2022-10-16T01:07:59.914Z,4.95
2022-10-16T01:10:55.275Z,5.22
2022-10-16T01:13:39.490Z,2.92
2022-10-16T01:16:30.633Z,3.55
2022-10-16T01:19:01.442Z,3.95
2022-10-16T01:21:32.759Z,2.78
2022-10-16T01:24:18.647Z,3.53
2022-10-16T01:26:59.019Z,3.08
2022-10-16T01:29:54.608Z,3.22
2022-10-16T01:32:38.257Z,5.03
2022-10-16T01:35:23.081Z,7.20
2022-10-16T01:38:07.379Z,3.85
2022-10-16T01:40:38.004Z,2.85
2022-10-16T01:43:16.523Z,6.68
2022-10-16T01:45:45.919Z,3.70
2022-10-16T01:48:20.834Z,3.28
2022-10-16T01:51:04.876Z,2.40
2022-10-16T01:53:32.642Z,6.75
2022-10-16T01:56:00.455Z,4.50
2022-10-16T01:58:31.715Z,4.68
2022-10-16T02:00:58.608Z,3.70
2022-10-16T02:03:25.422Z,2.40
2022-10-16T02:05:55.950Z,3.25
2022-10-16T02:08:24.936Z,4.65
2022-10-16T02:10:51.798Z,5.28
2022-10-16T02:13:34.175Z,2.88
2022-10-16T02:16:01.011Z,2.85
2022-10-16T02:18:30.245Z,5.72
2022-10-16T02:21:00.296Z,2.25
2022-10-16T02:23:52.166Z,2.20
2022-10-16T02:26:24.696Z,2.83
2022-10-16T02:28:57.292Z,3.58
2022-10-16T02:31:28.703Z,2.25
2022-10-16T02:33:59.892Z,4.22
2022-10-16T02:36:28.140Z,2.63
2022-10-16T02:38:55.248Z,3.90
2022-10-16T02:41:24.055Z,2.58
2022-10-16T02:43:50.773Z,2.53
2022-10-16T02:46:19.275Z,2.00
2022-10-16T02:48:45.932Z,2.90
2022-10-16T02:51:12.728Z,3.60
2022-10-16T02:53:39.406Z,2.97
2022-10-16T02:56:06.149Z,3.38
2022-10-16T02:58:32.882Z,2.45
2022-10-16T03:00:59.644Z,2.38
2022-10-16T03:03:26.327Z,1.92
2022-10-16T03:05:53.020Z,3.22
2022-10-16T03:08:24.405Z,4.72
2022-10-16T03:10:51.825Z,3.05
2022-10-16T03:13:18.552Z,2.63
2022-10-16T03:15:45.319Z,3.50
2022-10-16T03:18:12.037Z,2.35
2022-10-16T03:20:38.684Z,2.40
2022-10-16T03:23:05.343Z,3.88
2022-10-16T03:25:32.010Z,4.82
2022-10-16T03:27:58.665Z,2.00
2022-10-16T03:30:25.320Z,2.58
2022-10-16T03:32:55.052Z,4.57
2022-10-16T03:35:22.833Z,2.65
2022-10-16T03:37:49.532Z,1.95
2022-10-16T03:40:17.262Z,2.97
2022-10-16T03:42:44.596Z,4.90
2022-10-16T03:45:12.519Z,3.92
2022-10-16T03:47:39.281Z,3.25
2022-10-16T03:50:06.666Z,2.45
2022-10-16T03:52:33.961Z,4.32
2022-10-16T03:55:00.678Z,5.82
2022-10-16T03:57:27.580Z,2.75
2022-10-16T03:59:54.514Z,3.28
2022-10-16T04:02:21.192Z,2.35
2022-10-16T04:04:47.933Z,3.08
2022-10-16T04:07:14.707Z,1.95
2022-10-16T04:09:41.365Z,4.30
2022-10-16T04:12:08.104Z,5.80
2022-10-16T04:14:35.068Z,5.82
2022-10-16T04:17:01.835Z,5.63
2022-10-16T04:19:28.488Z,2.25
2022-10-16T04:21:55.140Z,5.22
2022-10-16T04:24:21.799Z,3.10
2022-10-16T04:26:48.497Z,2.38
2022-10-16T04:29:15.144Z,2.70
2022-10-16T04:31:41.863Z,2.00
2022-10-16T04:34:08.486Z,2.00
2022-10-16T04:36:35.156Z,3.47
2022-10-16T04:39:01.837Z,5.85
2022-10-16T04:41:28.498Z,2.40
2022-10-16T04:43:55.251Z,3.25
2022-10-16T04:46:21.896Z,4.35
2022-10-16T04:48:48.562Z,3.78
2022-10-16T04:51:15.315Z,4.15
2022-10-16T04:53:41.997Z,5.32
2022-10-16T04:56:08.719Z,2.80
2022-10-16T04:58:35.389Z,2.67
2022-10-16T05:01:02.109Z,4.30
2022-10-16T05:03:28.836Z,3.40
2022-10-16T05:05:55.832Z,4.80
2022-10-16T05:08:22.536Z,3.28
2022-10-16T05:10:49.324Z,2.85
2022-10-16T05:13:16.046Z,3.60
2022-10-16T05:15:42.679Z,4.07
2022-10-16T05:18:10.121Z,2.40
2022-10-16T05:20:36.824Z,2.17
2022-10-16T05:23:03.542Z,2.40
2022-10-16T05:25:30.304Z,4.53
2022-10-16T05:27:57.081Z,4.82
2022-10-16T05:30:23.784Z,4.32
2022-10-16T05:32:51.671Z,4.00
2022-10-16T05:35:19.421Z,2.42
2022-10-16T05:37:46.242Z,2.75
2022-10-16T05:40:13.949Z,2.50
2022-10-16T05:42:41.697Z,4.18
2022-10-16T05:45:11.189Z,2.38
2022-10-16T05:47:38.061Z,2.85
2022-10-16T05:50:05.296Z,3.42
2022-10-16T05:52:32.088Z,2.55
2022-10-16T05:54:58.726Z,4.30
2022-10-16T05:57:25.784Z,7.90
2022-10-16T05:59:52.804Z,2.75
2022-10-16T06:02:19.447Z,3.10
2022-10-16T06:04:46.103Z,2.60
2022-10-16T06:07:12.941Z,2.50
2022-10-16T06:09:39.607Z,4.20
2022-10-16T06:12:06.304Z,2.97
2022-10-16T06:14:33.334Z,3.03
2022-10-16T06:16:59.999Z,2.22
2022-10-16T06:19:26.676Z,5.15
2022-10-16T06:21:53.346Z,2.95
2022-10-16T06:24:20.078Z,4.90
2022-10-16T06:26:46.769Z,3.00
2022-10-16T06:29:13.456Z,2.40
2022-10-16T06:31:40.121Z,3.65
2022-10-16T06:34:10.320Z,2.80
2022-10-16T06:36:37.437Z,2.33
2022-10-16T06:39:04.572Z,4.38
2022-10-16T06:41:31.271Z,2.65
2022-10-16T06:43:57.942Z,3.53
2022-10-16T06:46:26.513Z,4.75
2022-10-16T06:48:54.649Z,6.15
2022-10-16T06:51:24.344Z,5.43
2022-10-16T06:54:08.783Z,5.55
2022-10-16T06:56:35.790Z,4.03
2022-10-16T06:59:03.442Z,2.67
2022-10-16T07:01:30.231Z,4.20
2022-10-16T07:03:57.721Z,2.65
2022-10-16T07:06:26.474Z,5.30
2022-10-16T07:08:53.709Z,2.60
2022-10-16T07:11:22.653Z,3.67
2022-10-16T07:13:54.576Z,2.33
2022-10-16T07:16:33.205Z,2.03
2022-10-16T07:19:01.821Z,5.70
2022-10-16T07:21:37.461Z,4.10
2022-10-16T07:24:06.829Z,2.65
2022-10-16T07:26:36.240Z,4.30
2022-10-16T07:29:02.991Z,5.28
2022-10-16T07:31:30.017Z,4.00
2022-10-16T07:33:58.510Z,3.20
2022-10-16T07:36:25.387Z,4.38
2022-10-16T07:38:54.174Z,2.22
2022-10-16T07:41:24.377Z,3.75
2022-10-16T07:43:53.242Z,6.25
2022-10-16T07:46:21.652Z,2.90
2022-10-16T07:48:49.142Z,4.25
2022-10-16T07:51:18.709Z,2.83
2022-10-16T07:53:45.439Z,2.90
2022-10-16T07:56:13.224Z,3.53
2022-10-16T07:58:40.112Z,3.78
2022-10-16T08:01:14.011Z,3.50
2022-10-16T08:03:47.305Z,3.10
2022-10-16T08:06:14.193Z,3.38
2022-10-16T08:08:40.972Z,3.90
2022-10-16T08:11:07.815Z,5.65
2022-10-16T08:13:34.767Z,5.20
2022-10-16T08:16:02.226Z,5.68
2022-10-16T08:18:28.987Z,5.45
2022-10-16T08:21:01.064Z,4.60
2022-10-16T08:23:28.650Z,3.42
2022-10-16T08:25:56.279Z,4.30
2022-10-16T08:28:23.901Z,6.63
2022-10-16T08:30:50.602Z,5.22
2022-10-16T08:33:17.416Z,4.63
2022-10-16T08:35:44.064Z,6.13
2022-10-16T08:38:11.498Z,5.03
2022-10-16T08:40:38.811Z,4.65
2022-10-16T08:43:47.740Z,2.50
2022-10-16T08:46:37.676Z,5.25
2022-10-16T08:49:09.141Z,4.65
2022-10-16T08:51:40.306Z,2.45
2022-10-16T08:54:46.574Z,3.97
2022-10-16T08:57:25.248Z,3.13
2022-10-16T08:59:55.638Z,4.60
2022-10-16T09:02:37.161Z,5.28
2022-10-16T09:05:31.643Z,3.75
2022-10-16T09:10:58.318Z,7.80
2022-10-16T09:13:37.231Z,5.50
2022-10-16T09:16:24.181Z,4.03
2022-10-16T09:18:58.155Z,2.45
2022-10-16T09:21:29.908Z,5.78
2022-10-16T09:24:12.418Z,5.63
2022-10-16T09:26:39.102Z,8.32
2022-10-16T09:29:05.914Z,5.57
2022-10-16T09:31:32.745Z,4.85
2022-10-16T09:34:05.263Z,2.92
2022-10-16T09:36:42.825Z,4.85
2022-10-16T09:39:15.182Z,4.40
2022-10-16T09:41:45.779Z,5.00
2022-10-16T09:44:30.016Z,4.85
2022-10-16T09:47:14.273Z,4.30
2022-10-16T09:49:56.091Z,4.30
2022-10-16T09:52:23.779Z,5.93
2022-10-16T09:55:02.003Z,4.22
2022-10-16T09:57:29.477Z,3.83
2022-10-16T09:59:58.084Z,3.00
2022-10-16T10:02:36.798Z,4.78
2022-10-16T10:05:06.833Z,6.70
2022-10-16T10:07:39.980Z,8.18
2022-10-16T10:10:20.512Z,4.97
2022-10-16T10:12:47.297Z,3.63
2022-10-16T10:15:20.861Z,3.97
2022-10-16T10:17:50.736Z,3.67
2022-10-16T10:20:26.551Z,5.03
2022-10-16T10:22:53.405Z,4.35
2022-10-16T10:25:39.797Z,2.33
2022-10-16T10:28:12.335Z,6.55
2022-10-16T10:31:01.908Z,5.93
2022-10-16T10:33:42.663Z,4.05
2022-10-16T10:36:24.381Z,4.53
2022-10-16T10:39:12.540Z,4.80
2022-10-16T10:41:54.589Z,4.65
2022-10-16T10:44:48.551Z,6.70
2022-10-16T10:47:43.206Z,4.70
2022-10-16T10:51:00.353Z,5.45
2022-10-16T10:53:47.925Z,5.38
2022-10-16T10:56:26.400Z,4.05
2022-10-16T10:58:55.858Z,4.72
2022-10-16T11:01:53.742Z,5.00
2022-10-16T11:04:48.231Z,5.80
2022-10-16T11:07:33.169Z,3.55
2022-10-16T11:10:15.956Z,3.67
2022-10-16T11:12:47.753Z,2.17
2022-10-16T11:15:21.527Z,8.55
2022-10-16T11:18:04.172Z,5.03
2022-10-16T11:20:58.559Z,2.05
2022-10-16T11:23:30.900Z,2.55
2022-10-16T11:26:03.122Z,6.88
2022-10-16T11:28:46.051Z,3.42
2022-10-16T11:31:33.476Z,4.10
2022-10-16T11:34:19.110Z,4.07
2022-10-16T11:37:05.689Z,6.53
2022-10-16T11:39:32.958Z,7.03
2022-10-16T11:42:17.619Z,7.90
2022-10-16T11:45:08.591Z,6.45
2022-10-16T11:48:00.126Z,6.15
2022-10-16T11:50:33.092Z,7.32
2022-10-16T11:53:23.012Z,5.32
2022-10-16T11:55:49.951Z,8.07
2022-10-16T11:58:35.528Z,4.47
2022-10-16T12:01:19.346Z,2.70
2022-10-16T12:03:52.496Z,3.05
2022-10-16T12:06:31.310Z,4.80
2022-10-16T12:09:01.086Z,3.78
2022-10-16T12:11:27.746Z,5.82
2022-10-16T12:14:12.838Z,3.85
2022-10-16T12:16:52.107Z,4.53
2022-10-16T12:19:19.838Z,2.83
2022-10-16T12:21:46.778Z,3.85
2022-10-16T12:24:33.996Z,3.78
2022-10-16T12:27:01.812Z,4.43
2022-10-16T12:29:41.051Z,5.40
2022-10-16T12:32:45.670Z,3.80
2022-10-16T12:35:24.341Z,4.35
2022-10-16T12:37:52.417Z,5.22
2022-10-16T12:40:25.824Z,6.32
2022-10-16T12:42:53.034Z,5.30
2022-10-16T12:45:34.626Z,6.13
2022-10-16T12:48:03.920Z,4.50
2022-10-16T12:50:31.978Z,2.60
2022-10-16T12:52:59.932Z,3.55
2022-10-16T12:55:31.404Z,5.18
2022-10-16T12:58:26.855Z,2.72
2022-10-16T13:01:03.351Z,2.95
2022-10-16T13:03:48.433Z,3.63
2022-10-16T13:06:20.741Z,4.93
2022-10-16T13:09:14.890Z,3.65
2022-10-16T13:12:00.283Z,5.30
2022-10-16T13:14:51.280Z,2.08
2022-10-16T13:17:24.323Z,4.03
2022-10-16T13:20:24.915Z,2.58
2022-10-16T13:23:25.931Z,4.97
2022-10-16T13:26:13.155Z,6.32
2022-10-16T13:28:40.738Z,3.42
2022-10-16T13:31:23.811Z,4.65
2022-10-16T13:33:57.489Z,4.70
2022-10-16T13:36:30.322Z,6.10
2022-10-16T13:39:11.901Z,1.83
2022-10-16T13:41:39.015Z,3.50
2022-10-16T13:44:12.953Z,2.53
2022-10-16T13:46:39.803Z,5.20
2022-10-16T13:49:13.871Z,3.17
2022-10-16T13:51:40.696Z,4.43
2022-10-16T13:54:12.112Z,5.18
2022-10-16T13:56:41.374Z,3.65
2022-10-16T13:59:29.627Z,4.00
2022-10-16T14:01:58.649Z,3.78
2022-10-16T14:04:28.873Z,5.53
2022-10-16T14:06:56.192Z,2.20
2022-10-16T14:09:29.272Z,3.10
2022-10-16T14:12:03.821Z,6.43
2022-10-16T14:14:45.789Z,2.97
2022-10-16T14:17:29.773Z,2.42
2022-10-16T14:20:06.164Z,4.25
2022-10-16T14:22:38.799Z,2.83
2022-10-16T14:25:36.341Z,5.25
2022-10-16T14:28:19.679Z,2.42
2022-10-16T14:30:52.383Z,4.22
2022-10-16T14:33:34.426Z,2.35
2022-10-16T14:36:04.080Z,2.30
2022-10-16T14:38:31.383Z,2.58
2022-10-16T14:41:00.141Z,2.70
2022-10-16T14:43:38.968Z,2.55
2022-10-16T14:46:22.462Z,4.18
2022-10-16T14:48:51.742Z,3.22
2022-10-16T14:51:19.806Z,7.95
2022-10-16T14:53:47.157Z,2.67
2022-10-16T14:56:22.328Z,4.38
2022-10-16T14:58:51.276Z,2.95
2022-10-16T15:01:18.325Z,5.05
2022-10-16T15:03:45.532Z,3.05
2022-10-16T15:06:13.539Z,3.15
2022-10-16T15:08:40.912Z,2.38
2022-10-16T15:11:16.634Z,1.92
2022-10-16T15:13:43.321Z,2.00
2022-10-16T15:16:13.433Z,2.45
2022-10-16T15:18:40.621Z,4.10
2022-10-16T15:21:07.708Z,5.53
2022-10-16T15:23:34.374Z,2.85
2022-10-16T15:26:01.268Z,4.25
2022-10-16T15:28:27.960Z,2.92
2022-10-16T15:30:56.849Z,4.72
2022-10-16T15:33:28.412Z,2.42
2022-10-16T15:35:55.783Z,2.60
2022-10-16T15:38:23.862Z,4.00
2022-10-16T15:40:50.958Z,2.60
2022-10-16T15:43:17.904Z,3.25
2022-10-16T15:45:44.604Z,2.08
2022-10-16T15:48:13.624Z,2.20
2022-10-16T15:50:41.326Z,4.60
2022-10-16T15:53:08.013Z,5.38
2022-10-16T15:55:37.279Z,5.70
2022-10-16T15:58:03.958Z,5.85
2022-10-16T16:00:30.644Z,6.22
2022-10-16T16:02:57.335Z,4.50
2022-10-16T16:05:24.158Z,5.57
2022-10-16T16:07:51.745Z,3.55
2022-10-16T16:10:18.653Z,3.63
2022-10-16T16:12:52.451Z,2.85
2022-10-16T16:15:20.807Z,2.88
2022-10-16T16:17:47.597Z,4.53
2022-10-16T16:20:14.543Z,3.17
2022-10-16T16:22:41.732Z,5.53
2022-10-16T16:25:08.826Z,4.05
2022-10-16T16:27:35.559Z,4.25
2022-10-16T16:30:04.796Z,5.70
2022-10-16T16:32:31.933Z,4.25
2022-10-16T16:34:58.668Z,4.20
2022-10-16T16:37:25.652Z,6.53
2022-10-16T16:39:52.479Z,5.20
2022-10-16T16:42:19.275Z,10.07
2022-10-16T16:44:45.960Z,9.88
2022-10-16T16:47:12.693Z,13.88
2022-10-16T16:49:39.543Z,7.53
2022-10-16T16:52:06.646Z,8.02
2022-10-16T16:57:06.328Z,6.95
2022-10-16T16:59:33.764Z,6.80
2022-10-16T17:02:00.898Z,4.45
2022-10-16T17:04:28.639Z,4.65
2022-10-16T17:06:56.226Z,4.22
2022-10-16T17:09:23.870Z,5.10
2022-10-16T17:11:50.546Z,5.53
2022-10-16T17:14:17.616Z,5.65
2022-10-16T17:16:45.039Z,6.20
2022-10-16T17:19:18.136Z,7.90
2022-10-16T17:21:45.004Z,11.55
2022-10-16T17:24:12.634Z,11.43
2022-10-16T17:26:41.462Z,8.85
2022-10-16T17:29:10.899Z,6.72
2022-10-16T17:31:37.771Z,7.90
2022-10-16T17:34:07.483Z,8.45
2022-10-16T17:36:35.771Z,12.63
2022-10-16T17:39:05.997Z,9.85
2022-10-16T17:41:33.764Z,9.30
2022-10-16T17:44:00.605Z,10.27
2022-10-16T17:46:27.604Z,9.63
2022-10-16T17:48:55.722Z,11.70
2022-10-16T17:51:25.767Z,10.68
2022-10-16T17:53:54.682Z,11.55
2022-10-16T17:56:22.267Z,11.07
2022-10-16T17:58:51.752Z,10.88
2022-10-16T18:01:22.915Z,11.68
2022-10-16T18:04:07.247Z,12.38
2022-10-16T18:06:34.944Z,13.20
2022-10-16T18:09:03.253Z,13.73
2022-10-16T18:11:30.051Z,11.35
2022-10-16T18:13:59.198Z,9.95
2022-10-16T18:16:28.475Z,9.23
2022-10-16T18:18:57.201Z,9.80
2022-10-16T18:21:27.444Z,12.23
2022-10-16T18:23:54.974Z,12.73
2022-10-16T18:26:22.414Z,15.52
2022-10-16T18:28:51.786Z,9.52
2022-10-16T18:31:18.854Z,9.57
2022-10-16T18:33:50.662Z,11.27
2022-10-16T18:36:31.068Z,9.77
2022-10-16T18:38:58.875Z,11.50
2022-10-16T18:41:27.246Z,11.27
2022-10-16T18:43:54.645Z,10.63
2022-10-16T18:46:23.414Z,16.10
2022-10-16T18:48:51.223Z,13.60
2022-10-16T18:51:21.714Z,16.35
2022-10-16T18:53:50.866Z,13.68
2022-10-16T18:56:19.526Z,14.35
2022-10-16T18:58:49.125Z,12.93
2022-10-16T19:01:23.106Z,12.93
2022-10-16T19:03:54.272Z,14.15
2022-10-16T19:06:21.494Z,16.25
2022-10-16T19:08:48.378Z,18.20
2022-10-16T19:11:18.818Z,19.02
2022-10-16T19:14:04.546Z,18.63
2022-10-16T19:16:34.101Z,18.13
2022-10-16T19:19:03.256Z,19.45
2022-10-16T19:21:30.726Z,20.33
2022-10-16T19:23:59.829Z,20.77
2022-10-16T19:26:27.723Z,23.67
2022-10-16T19:28:59.201Z,21.67
2022-10-16T19:31:29.208Z,21.90
2022-10-16T19:33:58.778Z,24.08
2022-10-16T19:36:31.852Z,46.40
2022-10-16T19:39:07.334Z,37.95
2022-10-16T19:41:36.094Z,32.10
2022-10-16T19:44:05.463Z,31.45
2022-10-16T19:46:33.664Z,34.38
2022-10-16T19:49:03.080Z,28.25
2022-10-16T19:51:32.492Z,24.58
2022-10-16T19:54:01.809Z,24.60
2022-10-16T19:56:30.377Z,26.83
2022-10-16T19:58:58.620Z,30.77
2022-10-16T20:01:27.588Z,25.67
2022-10-16T20:03:54.599Z,30.17
2022-10-16T20:06:21.972Z,31.42
2022-10-16T20:08:51.610Z,29.98
2022-10-16T20:11:21.694Z,25.58
2022-10-16T20:13:48.527Z,23.33
2022-10-16T20:16:17.931Z,24.75
2022-10-16T20:18:45.791Z,23.95
2022-10-16T20:21:15.257Z,28.67
2022-10-16T20:23:42.471Z,22.63
2022-10-16T20:26:11.520Z,32.08
2022-10-16T20:28:40.673Z,33.33
2022-10-16T20:31:18.258Z,21.55
2022-10-16T20:33:45.390Z,21.80
2022-10-16T20:36:13.493Z,25.33
2022-10-16T20:38:41.241Z,21.08
2022-10-16T20:41:08.741Z,21.48
2022-10-16T20:43:39.206Z,18.73
2022-10-16T20:46:08.835Z,17.80
2022-10-16T20:48:37.096Z,17.38
2022-10-16T20:51:23.936Z,17.15
2022-10-16T20:53:57.832Z,16.60
2022-10-16T20:56:26.049Z,15.25
2022-10-16T20:58:53.131Z,13.57
2022-10-16T21:01:22.435Z,17.20
2022-10-16T21:03:55.867Z,15.67
2022-10-16T21:06:23.451Z,19.43
2022-10-16T21:08:50.721Z,13.13
2022-10-16T21:11:27.298Z,10.57
2022-10-16T21:13:56.037Z,9.97
2022-10-16T21:16:26.107Z,10.17
2022-10-16T21:19:00.694Z,9.83
2022-10-16T21:21:30.393Z,7.20
2022-10-16T21:23:58.327Z,11.23
2022-10-16T21:26:27.029Z,8.80
2022-10-16T21:28:59.110Z,6.97
2022-10-16T21:31:26.299Z,5.97
2022-10-16T21:33:59.360Z,5.50
2022-10-16T21:36:31.563Z,5.37
2022-10-16T21:39:06.780Z,10.43
2022-10-16T21:41:34.356Z,5.33
2022-10-16T21:44:07.915Z,9.70
2022-10-16T21:46:42.743Z,7.07
2022-10-16T21:49:15.883Z,7.47
2022-10-16T21:51:45.827Z,8.30
2022-10-16T21:54:18.555Z,8.53
2022-10-16T21:56:48.565Z,4.90
2022-10-16T21:59:15.451Z,5.23
2022-10-16T22:01:43.013Z,5.67
2022-10-16T22:04:11.452Z,6.23
2022-10-16T22:06:41.369Z,5.40
2022-10-16T22:09:08.822Z,9.43
2022-10-16T22:11:37.578Z,5.70
2022-10-16T22:14:27.208Z,5.13
2022-10-16T22:16:53.862Z,5.43
2022-10-16T22:19:21.994Z,12.17
2022-10-16T22:21:51.811Z,5.47
2022-10-16T22:24:18.820Z,5.10
2022-10-16T22:26:45.659Z,5.23
2022-10-16T22:29:13.930Z,5.57
2022-10-16T22:31:40.793Z,5.60
2022-10-16T22:34:07.914Z,5.50
2022-10-16T22:36:34.944Z,7.97
2022-10-16T22:39:04.867Z,4.07
2022-10-16T22:41:32.064Z,5.70
2022-10-16T22:43:58.738Z,5.07
2022-10-16T22:46:29.557Z,6.90
2022-10-16T22:48:56.806Z,6.50
2022-10-16T22:51:24.524Z,6.80
2022-10-16T22:53:51.468Z,5.40
2022-10-16T22:56:20.158Z,7.07
2022-10-16T22:58:56.003Z,6.30
2022-10-16T23:01:28.530Z,5.63
2022-10-16T23:03:55.425Z,11.43
2022-10-16T23:06:24.497Z,5.83
2022-10-16T23:08:56.341Z,5.87
2022-10-16T23:11:28.980Z,7.90
2022-10-16T23:13:58.735Z,6.17
2022-10-16T23:16:28.621Z,9.17
2022-10-16T23:18:55.408Z,7.27
2022-10-16T23:21:24.251Z,6.23
2022-10-16T23:24:00.049Z,6.83
2022-10-16T23:26:30.036Z,6.10
2022-10-16T23:29:00.954Z,7.57
2022-10-16T23:31:33.952Z,6.80
2022-10-16T23:34:03.458Z,6.63
2022-10-16T23:36:40.400Z,6.77
2022-10-16T23:39:07.108Z,7.60
2022-10-16T23:41:36.133Z,8.23
2022-10-16T23:44:03.038Z,10.87
2022-10-16T23:46:29.703Z,9.23
2022-10-16T23:49:03.565Z,7.53
2022-10-16T23:51:32.507Z,7.57
2022-10-16T23:54:01.554Z,8.33
2022-10-16T23:56:28.267Z,8.10
2022-10-16T23:59:02.910Z,6.60
